Meteo Giornale » Osservazioni meteo Italia » Ronchi Dei Legionari

ore: 09:50 - Osservazioni Meteo Ronchi Dei Legionari
Lat. 45° 49' N Lon. 13° 29' E Alt. 12 metri s.l.m.

sereno Europe/Rome

17 °C

Sereno

Temp. 24 Ore

5 °C

21 °C

Nord

1.8 Km/h

Dew point 9 °C

Umidità 59 %

Visibilità  10 Km

Il sole sorge alle ore 06:05

Il sole tramonta alle ore 20:03

Data e Ora Cielo e Fenomeni T °C DP °C Um. % Pres. hPa Vis. km Vento km/h
Oggi h: 09:50 sereno Sereno 17 9 59 1016 10 N 1.8
Oggi h: 09:20 sereno Sereno 16 8 58 1016 10 N 3.7
Oggi h: 08:50 sereno Sereno 14 7 62 1017 10 N 3.7
Oggi h: 08:20 sereno Sereno 12 7 71 1017 10 N 3.7
Oggi h: 07:50 sereno Sereno 9 5 75 1017 10 N 5.5
Oggi h: 07:20 sereno Sereno 7 4 81 1017 10 N 1.8
Oggi h: 06:50 sereno Sereno 5 3 86 1017 10 N 3.7
Oggi h: 06:20 sereno Sereno 6 2 75 1017 10 E 9.3
Oggi h: 05:50 sereno Sereno 5 3 86 1017 10 N 3.7
Oggi h: 05:20 sereno Sereno 6 4 86 1017 10 N 3.7
Oggi h: 04:50 sereno Sereno 6 3 81 1017 10 N 5.5
Oggi h: 04:20 sereno Sereno 6 4 86 1018 10 N 3.7
Oggi h: 03:50 sereno Sereno 6 5 93 1018 10 N 3.7
Oggi h: 03:20 sereno Sereno 7 4 81 1018 10 N 1.8
Oggi h: 02:50 sereno Sereno 8 4 75 1018 10 N 3.7
Oggi h: 02:20 sereno Sereno 7 4 81 1018 10 N 1.8
Oggi h: 01:50 sereno Sereno 8 4 75 1019 10 N 1.8
Oggi h: 01:20 sereno Sereno 9 5 75 1019 10 N 1.8
Oggi h: 00:50 sereno Sereno 9 5 75 1019 10 N 1.8
Oggi h: 00:20 sereno Sereno 8 5 81 1019 10 N 5.5
Ieri h: 23:50 sereno Sereno 10 6 76 1019 10 N 3.7
Ieri h: 23:20 sereno Sereno 10 6 76 1019 10 N 3.7
Ieri h: 22:20 sereno Sereno 11 8 81 1020 10 N 3.7
Ieri h: 21:50 sereno Sereno 13 8 71 1019 10 N 5.5
Ieri h: 21:20 sereno Sereno 14 8 67 1019 10 N 5.5
Ieri h: 20:50 sereno Sereno 15 8 62 1019 10 SE 7.4
Ieri h: 20:20 sereno Sereno 14 8 67 1019 10 SE 7.4
Ieri h: 19:50 sereno Sereno 16 8 58 1019 10 S/SE 9.3
Ieri h: 19:20 sereno Sereno 17 6 48 1019 10 N 3.7
Ieri h: 18:50 sereno Sereno 18 5 42 1019 10 N 3.7
Ieri h: 18:20 sereno Sereno 18 3 36 1019 10 SO 11.1
Ieri h: 17:50 sereno Sereno 19 4 37 1020 10 S/SO 16.7
Ieri h: 17:20 sereno Sereno 19 5 39 1020 10 SO 18.5
Ieri h: 16:50 sereno Sereno 20 4 34 1020 10 S/SO 14.8
Ieri h: 16:20 sereno Sereno 20 7 42 1020 10 S/SO 18.5
Ieri h: 15:50 sereno Sereno 20 4 34 1020 10 S/SO 20.3
Ieri h: 15:20 sereno Sereno 21 2 28 1020 10 S/SO 16.7
Ieri h: 14:50 sereno Sereno 21 2 28 1020 10 SO 20.3
Ieri h: 14:20 sereno Sereno 21 4 32 1020 10 SO 18.5
Ieri h: 13:50 sereno Sereno 21 5 35 1020 10 SO 18.5
Ieri h: 13:20 sereno Sereno 21 7 40 1021 10 S 13
Ieri h: 12:50 sereno Sereno 21 8 43 1021 10 S/SE 13
Ieri h: 12:20 sereno Sereno 21 7 40 1021 10 SE 14.8
Ieri h: 11:50 poco_nuvoloso Poco Nuvoloso 21 6 37 1021 10 N 3.7
Ieri h: 11:20 poco_nuvoloso Poco Nuvoloso 20 4 34 1021 10 N 1.8
Ieri h: 10:50 poco_nuvoloso Poco Nuvoloso 19 6 42 1022 10 N 5.5